Overview Statistics Trail Chart Weather Telemetry Raw packets
 

This is the latest recevied weather packets stored in our database for station/object WA1TYB-13. If no packets are shown the sender has not sent any weather packets the latest 10 day(s).

<< 17 18 19 20 21 22 23 >>
Time Temp. Humidity Pressure Rain* Wind** Luminosity Snow
1788494581 18.89° C 37% 1011.2 hPa 0 mm - 0 W/m² -
1788494277 18.89° C 36% 1011.1 hPa 0 mm - 0 W/m² -
1788493973 18.89° C 35% 1011.2 hPa 0 mm - 0 W/m² -
1788493671 19.44° C 34% 1011.3 hPa 0 mm - 0 W/m² -
1788493368 19.44° C 34% 1011.1 hPa 0 mm - 0 W/m² -
1788493072 19.44° C 33% 1011.5 hPa 0 mm - 0 W/m² -
1788492760 18.89° C 35% 1011.1 hPa 0 mm - 0 W/m² -
1788492456 18.89° C 35% 1011.4 hPa 0 mm - 0 W/m² -
1788492155 18.89° C 35% 1011.3 hPa 0 mm - 0 W/m² -
1788491849 19.44° C 32% 1011.3 hPa 0 mm - 0 W/m² -
1788491545 19.44° C 31% 1011.3 hPa 0 mm - 0 W/m² -
1788491241 20° C 30% 1011.1 hPa 0 mm - 0 W/m² -
1788490935 20.56° C 29% 1011.1 hPa 0 mm - 0 W/m² -
1788490632 20.56° C 28% 1011.4 hPa 0 mm - 0 W/m² -
1788490327 20° C 28% 1011.2 hPa 0 mm - 0 W/m² -
1788490016 20.56° C 27% 1011.2 hPa 0 mm - 0 W/m² -
1788489712 20.56° C 25% 1011.2 hPa 0 mm - 0 W/m² -
1788489408 20.56° C 25% 1011 hPa 0 mm - 0 W/m² -
1788489104 20.56° C 26% 1011.2 hPa 0 mm - 0 W/m² -
1788488803 21.11° C 24% 1010.6 hPa 0 mm - 0 W/m² -
1788488500 21.11° C 23% 1010.8 hPa 0 mm - 0 W/m² -
1788488196 21.67° C 23% 1010.7 hPa 0 mm - 0 W/m² -
1788487891 22.22° C 21% 1010.8 hPa 0 mm - 0 W/m² -
1788487587 22.22° C 21% 1010.5 hPa 0 mm - 0 W/m² -
1788487281 21.67° C 22% 1010.5 hPa 0 mm - 2 W/m² -

* Rain latest hour (hover to see other rain measurements)
** Current wind speed in m/s (hover to see current wind gust speed)